Olive Branch, Mississippi
Current Conditions -  °F | °C
As of 4:50 PM on Saturday 25 Oct 2014 (Local Time) from KOLV Reporting Station
Clear Clear  
Wind Chill: 79°   Ceiling: Unl
Heat Index: 81°   Visibility: 10mi
Dew Point: 64°   Wind: 6mph
Humidity: 61%   Direction: 250°WSW
Pressure: 30.02"   Gusts: NA
Location:  34.96°N, 89.83°W
Report Text: KOLV 252150Z 25005KT 10SM SKC 26/18 A3002
Loading
Personal Weather Stations






























Interactive Weather Map
Tropical Storm Tracking
New forecast layout! Learn more

10-Day Weather Forecast

Advertisements
Track Severe Weather on mobile